createdAt,value
2018-06-22T00:02:13.335Z,17.73
2018-06-22T00:04:42.291Z,18.40
2018-06-22T00:07:11.105Z,19.90
2018-06-22T00:09:39.713Z,19.77
2018-06-22T00:12:08.266Z,18.97
2018-06-22T00:14:36.873Z,20.10
2018-06-22T00:17:05.423Z,19.63
2018-06-22T00:19:33.948Z,17.40
2018-06-22T00:22:02.496Z,22.33
2018-06-22T00:24:31.053Z,22.07
2018-06-22T00:26:59.555Z,27.20
2018-06-22T00:29:28.263Z,20.63
2018-06-22T00:31:57.075Z,20.27
2018-06-22T00:34:25.918Z,23.30
2018-06-22T00:36:54.753Z,21.77
2018-06-22T00:39:23.426Z,23.20
2018-06-22T00:41:51.955Z,23.60
2018-06-22T00:44:20.919Z,22.93
2018-06-22T00:46:49.434Z,22.10
2018-06-22T00:49:18.156Z,22.80
2018-06-22T00:51:46.986Z,20.23
2018-06-22T00:54:17.121Z,21.10
2018-06-22T00:56:46.514Z,26.53
2018-06-22T00:59:15.353Z,29.80
2018-06-22T01:01:44.224Z,23.50
2018-06-22T01:04:13.083Z,26.67
2018-06-22T01:06:41.916Z,25.93
2018-06-22T01:09:12.313Z,24.30
2018-06-22T01:11:41.153Z,22.17
2018-06-22T01:14:10.019Z,27.33
2018-06-22T01:16:38.951Z,24.77
2018-06-22T01:19:08.281Z,26.57
2018-06-22T01:21:37.166Z,30.20
2018-06-22T01:24:06.477Z,27.40
2018-06-22T01:26:35.323Z,29.93
2018-06-22T01:29:10.066Z,30.63
2018-06-22T01:31:38.555Z,27.03
2018-06-22T01:34:07.096Z,27.50
2018-06-22T01:36:35.596Z,25.13
2018-06-22T01:39:06.608Z,24.47
2018-06-22T01:41:35.113Z,28.73
2018-06-22T01:44:03.693Z,26.20
2018-06-22T01:46:32.566Z,31.17
2018-06-22T01:49:01.295Z,27.27
2018-06-22T01:51:30.130Z,29.97
2018-06-22T01:53:58.975Z,26.00
2018-06-22T01:56:27.803Z,32.07
2018-06-22T01:58:56.630Z,26.57
2018-06-22T02:01:25.446Z,32.03
2018-06-22T02:03:54.640Z,30.10
2018-06-22T02:06:23.520Z,32.10
2018-06-22T02:08:52.361Z,31.17
2018-06-22T02:11:20.936Z,33.60
2018-06-22T02:13:49.770Z,35.50
2018-06-22T02:16:18.619Z,38.63
2018-06-22T02:18:47.328Z,32.23
2018-06-22T02:21:15.916Z,39.90
2018-06-22T02:23:44.466Z,35.93
2018-06-22T02:26:12.964Z,26.57
2018-06-22T02:28:41.690Z,25.93
2018-06-22T02:31:10.547Z,27.83
2018-06-22T02:33:39.377Z,36.93
2018-06-22T02:36:08.216Z,42.63
2018-06-22T02:38:36.816Z,29.30
2018-06-22T02:41:06.260Z,31.33
2018-06-22T02:43:35.347Z,30.20
2018-06-22T02:46:04.048Z,29.73
2018-06-22T02:48:32.615Z,32.60
2018-06-22T02:51:01.432Z,28.80
2018-06-22T02:53:30.044Z,45.73
2018-06-22T02:55:58.553Z,51.23
2018-06-22T02:58:27.113Z,45.97
2018-06-22T03:00:55.633Z,54.53
2018-06-22T03:03:24.173Z,50.07
2018-06-22T03:05:52.671Z,52.63
2018-06-22T03:08:21.242Z,53.20
2018-06-22T03:10:49.801Z,47.03
2018-06-22T03:13:18.617Z,58.07
2018-06-22T03:15:47.301Z,47.00
2018-06-22T03:18:15.820Z,48.73
2018-06-22T03:20:44.551Z,49.83
2018-06-22T03:23:13.383Z,54.57
2018-06-22T03:25:42.296Z,58.23
2018-06-22T03:28:11.112Z,51.93
2018-06-22T03:30:39.935Z,49.33
2018-06-22T03:33:08.788Z,48.90
2018-06-22T03:35:37.630Z,51.53
2018-06-22T03:38:07.305Z,51.03
2018-06-22T03:40:36.150Z,52.97
2018-06-22T03:43:05.495Z,49.97
2018-06-22T03:45:34.353Z,52.80
2018-06-22T03:48:03.221Z,50.53
2018-06-22T03:50:31.898Z,50.60
2018-06-22T03:53:00.508Z,59.90
2018-06-22T03:55:29.270Z,53.83
2018-06-22T03:57:57.870Z,45.57
2018-06-22T04:00:26.531Z,44.77
2018-06-22T04:02:55.127Z,44.20
2018-06-22T04:05:23.701Z,39.37
2018-06-22T04:07:52.201Z,41.67
2018-06-22T04:10:21.035Z,40.50
2018-06-22T04:12:49.887Z,39.07
2018-06-22T04:15:18.686Z,44.97
2018-06-22T04:17:50.203Z,39.10
2018-06-22T04:20:20.008Z,30.23
2018-06-22T04:22:48.906Z,32.90
2018-06-22T04:25:18.421Z,33.17
2018-06-22T04:27:47.115Z,29.27
2018-06-22T04:30:15.978Z,26.17
2018-06-22T04:32:44.883Z,25.57
2018-06-22T04:35:13.525Z,26.13
2018-06-22T04:37:42.056Z,28.37
2018-06-22T04:40:10.838Z,27.53
2018-06-22T04:42:39.720Z,28.77
2018-06-22T04:45:08.578Z,27.00
2018-06-22T04:47:37.420Z,25.67
2018-06-22T04:50:06.320Z,25.33
2018-06-22T04:52:35.203Z,30.93
2018-06-22T04:55:04.047Z,26.37
2018-06-22T04:57:33.028Z,31.73
2018-06-22T05:00:01.643Z,31.07
2018-06-22T05:02:30.196Z,30.10
2018-06-22T05:04:58.755Z,29.47
2018-06-22T05:07:27.089Z,27.50
2018-06-22T05:09:55.871Z,34.27
2018-06-22T05:12:24.750Z,30.43
2018-06-22T05:14:53.663Z,30.13
2018-06-22T05:17:22.583Z,26.93
2018-06-22T05:19:51.244Z,30.53
2018-06-22T05:22:19.811Z,28.43
2018-06-22T05:24:48.390Z,29.73
2018-06-22T05:27:16.881Z,29.97
2018-06-22T05:29:45.436Z,28.63
2018-06-22T05:32:14.621Z,28.80
2018-06-22T05:34:43.182Z,30.43
2018-06-22T05:37:11.724Z,24.67
2018-06-22T05:39:40.303Z,25.97
2018-06-22T05:42:09.128Z,28.43
2018-06-22T05:44:37.715Z,27.40
2018-06-22T05:47:06.258Z,26.80
2018-06-22T05:49:34.926Z,29.80
2018-06-22T05:52:03.583Z,26.73
2018-06-22T05:54:32.238Z,27.67
2018-06-22T05:57:00.668Z,26.27
2018-06-22T05:59:29.150Z,27.10
2018-06-22T06:01:57.722Z,25.20
2018-06-22T06:04:26.328Z,31.30
2018-06-22T06:06:54.937Z,23.27
2018-06-22T06:09:23.753Z,33.43
2018-06-22T06:11:52.973Z,30.03
2018-06-22T06:14:21.893Z,25.40
2018-06-22T06:16:50.817Z,23.63
2018-06-22T06:19:19.813Z,24.90
2018-06-22T06:21:48.713Z,28.83
2018-06-22T06:24:17.595Z,26.97
2018-06-22T06:26:46.460Z,28.80
2018-06-22T06:29:15.402Z,27.37
2018-06-22T06:31:44.352Z,30.87
2018-06-22T06:34:13.291Z,26.93
2018-06-22T06:36:42.298Z,27.87
2018-06-22T06:39:11.037Z,29.83
2018-06-22T06:41:39.723Z,29.40
2018-06-22T06:44:08.437Z,31.77
2018-06-22T06:46:36.936Z,28.27
2018-06-22T06:49:05.556Z,26.70
2018-06-22T06:51:34.103Z,25.37
2018-06-22T06:54:02.979Z,25.20
2018-06-22T06:56:31.524Z,23.20
2018-06-22T06:59:00.284Z,25.67
2018-06-22T07:01:29.214Z,23.20
2018-06-22T07:03:58.216Z,23.40
2018-06-22T07:06:27.061Z,22.97
2018-06-22T07:08:55.892Z,27.90
2018-06-22T07:11:24.896Z,30.17
2018-06-22T07:13:53.758Z,25.57
2018-06-22T07:16:22.666Z,49.57
2018-06-22T07:18:51.533Z,26.57
2018-06-22T07:21:21.244Z,20.68
2018-06-22T07:23:50.209Z,24.15
2018-06-22T07:26:19.186Z,18.50
2018-06-22T07:28:48.034Z,20.20
2018-06-22T07:31:16.941Z,15.60
2018-06-22T07:33:46.193Z,16.90
2018-06-22T07:36:15.244Z,18.03
2018-06-22T07:38:43.976Z,17.13
2018-06-22T07:41:12.526Z,14.33
2018-06-22T07:43:42.063Z,17.32
2018-06-22T07:46:10.687Z,18.80
2018-06-22T07:48:39.496Z,15.50
2018-06-22T07:51:09.009Z,16.93
2018-06-22T07:53:38.352Z,16.00
2018-06-22T07:56:07.203Z,16.00
2018-06-22T07:58:36.149Z,16.02
2018-06-22T08:01:05.067Z,15.90
2018-06-22T08:03:33.896Z,13.63
2018-06-22T08:06:02.749Z,15.03
2018-06-22T08:08:31.672Z,14.98
2018-06-22T08:11:00.593Z,13.55
2018-06-22T08:13:30.356Z,14.20
2018-06-22T08:15:59.242Z,15.30
2018-06-22T08:18:28.182Z,13.30
2018-06-22T08:20:57.038Z,11.97
2018-06-22T08:23:25.951Z,13.03
2018-06-22T08:25:54.884Z,15.38
2018-06-22T08:28:23.814Z,13.75
2018-06-22T08:30:52.771Z,14.23
2018-06-22T08:33:21.646Z,13.48
2018-06-22T08:35:50.548Z,12.20
2018-06-22T08:38:19.396Z,12.07
2018-06-22T08:40:48.444Z,14.38
2018-06-22T08:43:17.281Z,12.58
2018-06-22T08:45:46.263Z,15.53
2018-06-22T08:48:14.893Z,14.30
2018-06-22T08:50:43.539Z,14.60
2018-06-22T08:53:13.041Z,15.70
2018-06-22T08:55:41.666Z,14.53
2018-06-22T08:58:10.465Z,12.75
2018-06-22T09:00:39.369Z,14.47
2018-06-22T09:03:09.308Z,14.33
2018-06-22T09:05:38.311Z,13.93
2018-06-22T09:08:13.036Z,15.10
2018-06-22T09:10:43.858Z,13.15
2018-06-22T09:13:13.007Z,12.30
2018-06-22T09:15:42.024Z,12.85
2018-06-22T09:18:11.119Z,13.13
2018-06-22T09:20:40.114Z,13.40
2018-06-22T09:23:09.244Z,11.08
2018-06-22T09:25:38.193Z,12.40
2018-06-22T09:28:06.835Z,10.72
2018-06-22T09:30:36.476Z,12.20
2018-06-22T09:33:05.114Z,12.13
2018-06-22T09:35:33.728Z,11.38
2018-06-22T09:38:02.403Z,11.93
2018-06-22T09:40:31.055Z,12.63
2018-06-22T09:42:59.714Z,10.45
2018-06-22T09:45:28.377Z,10.98
2018-06-22T09:47:57.376Z,10.98
2018-06-22T09:50:26.324Z,11.33
2018-06-22T09:52:55.300Z,9.95
2018-06-22T09:55:24.264Z,10.08
2018-06-22T09:57:53.041Z,10.03
2018-06-22T10:00:21.691Z,9.40
2018-06-22T10:02:50.425Z,9.43
2018-06-22T10:05:19.055Z,9.93
2018-06-22T10:07:47.671Z,9.18
2018-06-22T10:10:16.200Z,9.55
2018-06-22T10:12:44.863Z,8.68
2018-06-22T10:15:13.448Z,9.30
2018-06-22T10:17:42.318Z,11.75
2018-06-22T10:20:11.158Z,9.20
2018-06-22T10:22:40.168Z,8.23
2018-06-22T10:25:09.146Z,8.53
2018-06-22T10:27:38.556Z,10.93
2018-06-22T10:30:07.128Z,9.48
2018-06-22T10:32:35.703Z,8.55
2018-06-22T10:35:04.398Z,8.40
2018-06-22T10:37:33.044Z,10.13
2018-06-22T10:40:01.712Z,8.30
2018-06-22T10:42:30.295Z,10.32
2018-06-22T10:44:58.923Z,10.78
2018-06-22T10:47:27.888Z,9.13
2018-06-22T10:49:57.051Z,9.30
2018-06-22T10:52:26.036Z,9.45
2018-06-22T10:54:55.175Z,9.38
2018-06-22T10:57:24.031Z,11.30
2018-06-22T10:59:53.014Z,9.55
2018-06-22T11:02:21.643Z,9.48
2018-06-22T11:04:50.281Z,9.60
2018-06-22T11:07:19.334Z,11.12
2018-06-22T11:09:48.361Z,8.50
2018-06-22T11:12:17.276Z,8.70
2018-06-22T11:14:46.164Z,9.58
2018-06-22T11:17:15.104Z,9.08
2018-06-22T11:19:44.078Z,7.95
2018-06-22T11:22:12.949Z,9.03
2018-06-22T11:24:42.041Z,8.70
2018-06-22T11:27:10.931Z,7.70
2018-06-22T11:29:39.664Z,7.97
2018-06-22T11:32:08.623Z,7.75
2018-06-22T11:34:37.429Z,6.97
2018-06-22T11:37:06.556Z,9.28
2018-06-22T11:39:35.263Z,9.13
2018-06-22T11:42:04.031Z,8.90
2018-06-22T11:44:32.616Z,9.05
2018-06-22T11:47:01.896Z,6.67
2018-06-22T11:49:31.185Z,8.98
2018-06-22T11:52:00.344Z,8.38
2018-06-22T11:54:29.343Z,10.78
2018-06-22T11:56:58.201Z,8.50
2018-06-22T11:59:27.284Z,10.23
2018-06-22T12:01:55.855Z,8.48
2018-06-22T12:04:24.571Z,7.62
2018-06-22T12:06:53.787Z,9.25
2018-06-22T12:09:22.826Z,8.53
2018-06-22T12:11:51.874Z,9.90
2018-06-22T12:14:20.895Z,7.50
2018-06-22T12:16:49.942Z,7.35
2018-06-22T12:19:19.131Z,8.25
2018-06-22T12:21:48.107Z,8.53
2018-06-22T12:24:17.046Z,7.58
2018-06-22T12:26:46.202Z,7.05
2018-06-22T12:29:15.723Z,7.60
2018-06-22T12:31:44.655Z,10.53
2018-06-22T12:34:13.604Z,6.15
2018-06-22T12:36:42.741Z,6.80
2018-06-22T12:39:13.033Z,7.08
2018-06-22T12:41:42.728Z,5.70
2018-06-22T12:44:11.365Z,7.25
2018-06-22T12:46:40.160Z,6.60
2018-06-22T12:49:08.993Z,5.80
2018-06-22T12:51:37.782Z,5.80
2018-06-22T12:54:06.665Z,6.05
2018-06-22T12:56:35.588Z,6.45
2018-06-22T12:59:04.636Z,5.80
2018-06-22T13:01:33.597Z,6.35
2018-06-22T13:04:02.577Z,5.97
2018-06-22T13:06:31.520Z,6.97
2018-06-22T13:09:00.269Z,5.72
2018-06-22T13:11:28.991Z,6.80
2018-06-22T13:13:57.621Z,5.72
2018-06-22T13:16:26.424Z,8.00
2018-06-22T13:18:55.496Z,11.12
2018-06-22T13:21:24.476Z,9.00
2018-06-22T13:23:53.429Z,7.22
2018-06-22T13:26:22.177Z,6.75
2018-06-22T13:28:51.157Z,8.18
2018-06-22T13:31:20.224Z,6.45
2018-06-22T13:33:48.846Z,9.58
2018-06-22T13:36:17.649Z,7.10
2018-06-22T13:38:46.536Z,7.30
2018-06-22T13:41:15.478Z,7.55
2018-06-22T13:43:44.197Z,7.67
2018-06-22T13:46:13.144Z,8.10
2018-06-22T13:48:42.096Z,6.22
2018-06-22T13:51:11.198Z,6.03
2018-06-22T13:53:40.194Z,6.67
2018-06-22T13:56:08.951Z,6.97
2018-06-22T13:58:37.733Z,6.08
2018-06-22T14:01:06.560Z,10.32
2018-06-22T14:03:39.766Z,6.15
2018-06-22T14:06:14.061Z,5.97
2018-06-22T14:08:42.739Z,5.62
2018-06-22T14:11:11.392Z,5.40
2018-06-22T14:13:39.984Z,5.30
2018-06-22T14:16:08.923Z,7.58
2018-06-22T14:18:37.896Z,5.55
2018-06-22T14:21:07.031Z,6.95
2018-06-22T14:23:36.077Z,6.83
2018-06-22T14:26:05.461Z,5.60
2018-06-22T14:28:34.473Z,5.87
2018-06-22T14:31:03.556Z,6.03
2018-06-22T14:33:32.547Z,8.08
2018-06-22T14:36:01.529Z,7.25
2018-06-22T14:38:30.653Z,6.17
2018-06-22T14:40:59.703Z,6.00
2018-06-22T14:43:28.425Z,5.08
2018-06-22T14:45:57.689Z,5.78
2018-06-22T14:48:26.785Z,6.55
2018-06-22T14:50:55.760Z,7.42
2018-06-22T14:53:30.280Z,7.35
2018-06-22T14:56:04.893Z,6.20
2018-06-22T14:58:39.204Z,5.53
2018-06-22T15:01:13.553Z,5.60
2018-06-22T15:03:47.734Z,5.50
2018-06-22T15:06:21.791Z,5.62
2018-06-22T15:08:50.516Z,10.15
2018-06-22T15:11:19.128Z,7.05
2018-06-22T15:13:49.189Z,5.92
2018-06-22T15:16:17.964Z,5.83
2018-06-22T15:18:47.236Z,7.17
2018-06-22T15:21:15.859Z,6.80
2018-06-22T15:23:44.456Z,9.98
2018-06-22T15:26:13.126Z,8.13
2018-06-22T15:28:42.036Z,7.70
2018-06-22T15:31:10.961Z,10.18
2018-06-22T15:33:45.376Z,8.00
2018-06-22T15:36:19.882Z,9.00
2018-06-22T15:38:54.531Z,7.60
2018-06-22T15:41:29.062Z,7.65
2018-06-22T15:44:03.568Z,7.65
2018-06-22T15:46:38.218Z,6.80
2018-06-22T15:49:12.547Z,8.50
2018-06-22T15:51:46.823Z,8.28
2018-06-22T15:54:22.359Z,8.33
2018-06-22T15:56:51.141Z,6.35
2018-06-22T15:59:20.212Z,5.87
2018-06-22T16:01:49.109Z,6.97
2018-06-22T16:04:18.083Z,6.25
2018-06-22T16:06:47.016Z,8.55
2018-06-22T16:09:15.761Z,11.15
2018-06-22T16:11:44.447Z,7.35
2018-06-22T16:14:18.520Z,8.70
2018-06-22T16:16:52.637Z,7.15
2018-06-22T16:19:28.120Z,7.20
2018-06-22T16:22:02.703Z,9.90
2018-06-22T16:24:37.203Z,6.20
2018-06-22T16:27:07.759Z,5.87
2018-06-22T16:29:36.793Z,6.72
2018-06-22T16:32:05.799Z,8.53
2018-06-22T16:34:34.751Z,8.08
2018-06-22T16:37:03.714Z,5.92
2018-06-22T16:39:32.685Z,6.75
2018-06-22T16:42:03.276Z,6.37
2018-06-22T16:44:32.195Z,6.65
2018-06-22T16:47:01.271Z,10.58
2018-06-22T16:49:30.333Z,6.00
2018-06-22T16:51:59.316Z,7.25
2018-06-22T16:54:28.237Z,10.68
2018-06-22T16:56:56.959Z,8.83
2018-06-22T16:59:26.034Z,6.00
2018-06-22T17:01:55.037Z,7.40
2018-06-22T17:04:23.982Z,8.43
2018-06-22T17:06:58.461Z,12.00
2018-06-22T17:09:33.001Z,7.42
2018-06-22T17:14:10.753Z,7.20
2018-06-22T17:16:45.123Z,6.30
2018-06-22T17:19:19.182Z,6.17
2018-06-22T17:21:48.061Z,6.47
2018-06-22T17:24:16.750Z,6.17
2018-06-22T17:26:45.834Z,7.37
2018-06-22T17:29:14.856Z,7.05
2018-06-22T17:31:43.576Z,9.23
2018-06-22T17:34:12.218Z,7.03
2018-06-22T17:36:41.008Z,6.05
2018-06-22T17:39:11.399Z,7.85
2018-06-22T17:41:40.301Z,6.97
2018-06-22T17:44:09.248Z,8.38
2018-06-22T17:46:38.279Z,6.90
2018-06-22T17:49:07.207Z,8.50
2018-06-22T17:51:36.124Z,7.70
2018-06-22T17:54:05.608Z,7.67
2018-06-22T17:56:34.164Z,7.93
2018-06-22T17:59:08.386Z,7.77
2018-06-22T18:01:42.793Z,11.60
2018-06-22T18:06:25.816Z,13.37
2018-06-22T18:08:54.799Z,10.50
2018-06-22T18:11:29.338Z,8.67
2018-06-22T18:13:58.242Z,7.30
2018-06-22T18:16:27.434Z,7.57
2018-06-22T18:18:56.439Z,11.20
2018-06-22T18:21:25.459Z,8.40
2018-06-22T18:23:54.427Z,7.57
2018-06-22T18:26:23.407Z,11.00
2018-06-22T18:28:52.368Z,7.30
2018-06-22T18:31:21.129Z,7.07
2018-06-22T18:33:49.904Z,8.43
2018-06-22T18:36:18.663Z,9.83
2018-06-22T18:38:47.304Z,8.13
2018-06-22T18:41:15.984Z,8.27
2018-06-22T18:43:50.301Z,9.93
2018-06-22T18:46:19.173Z,8.23
2018-06-22T18:48:47.876Z,8.67
2018-06-22T18:51:16.806Z,9.73
2018-06-22T18:53:51.117Z,8.83
2018-06-22T18:56:25.982Z,8.87
2018-06-22T18:59:01.292Z,8.53
2018-06-22T19:01:36.286Z,8.00
2018-06-22T19:04:05.024Z,8.77
2018-06-22T19:06:33.683Z,8.83
2018-06-22T19:09:02.364Z,8.90
2018-06-22T19:11:31.318Z,13.10
2018-06-22T19:14:00.229Z,10.07
2018-06-22T19:16:29.229Z,9.20
2018-06-22T19:18:58.261Z,10.60
2018-06-22T19:21:26.958Z,9.47
2018-06-22T19:23:55.585Z,10.37
2018-06-22T19:26:24.204Z,11.30
2018-06-22T19:28:52.833Z,10.60
2018-06-22T19:31:21.591Z,9.23
2018-06-22T19:33:50.064Z,9.27
2018-06-22T19:36:18.553Z,8.90
2018-06-22T19:38:47.120Z,12.03
2018-06-22T19:41:15.984Z,10.60
2018-06-22T19:43:50.403Z,8.93
2018-06-22T19:46:24.958Z,8.40
2018-06-22T19:49:00.147Z,8.63
2018-06-22T19:51:34.340Z,8.10
2018-06-22T19:54:05.495Z,8.53
2018-06-22T19:56:34.176Z,11.23
2018-06-22T19:59:03.015Z,9.53
2018-06-22T20:01:32.151Z,8.77
2018-06-22T20:04:01.198Z,8.60
2018-06-22T20:06:30.150Z,9.20
2018-06-22T20:08:59.146Z,8.13
2018-06-22T20:11:28.603Z,7.93
2018-06-22T20:13:57.548Z,8.00
2018-06-22T20:16:26.834Z,9.10
2018-06-22T20:18:56.010Z,7.40
2018-06-22T20:21:24.889Z,7.57
2018-06-22T20:23:53.345Z,7.93
2018-06-22T20:26:22.071Z,8.27
2018-06-22T20:28:50.732Z,7.43
2018-06-22T20:31:25.260Z,7.20
2018-06-22T20:33:54.336Z,11.67
2018-06-22T20:36:29.086Z,10.10
2018-06-22T20:39:03.529Z,7.60
2018-06-22T20:41:37.756Z,8.10
2018-06-22T20:44:12.061Z,7.90
2018-06-22T20:46:46.288Z,11.13
2018-06-22T20:49:20.696Z,8.27
2018-06-22T20:51:49.439Z,8.53
2018-06-22T20:54:18.124Z,7.17
2018-06-22T20:56:46.816Z,7.33
2018-06-22T20:59:15.514Z,5.70
2018-06-22T21:01:43.984Z,6.83
2018-06-22T21:04:12.789Z,5.90
2018-06-22T21:06:41.494Z,8.10
2018-06-22T21:09:10.679Z,7.30
2018-06-22T21:11:39.263Z,7.80
2018-06-22T21:14:08.358Z,6.87
2018-06-22T21:16:37.335Z,6.57
2018-06-22T21:19:06.320Z,6.93
2018-06-22T21:21:41.257Z,6.47
2018-06-22T21:24:09.858Z,7.10
2018-06-22T21:26:38.531Z,7.93
2018-06-22T21:29:12.789Z,8.00
2018-06-22T21:31:46.880Z,8.67
2018-06-22T21:34:21.001Z,8.83
2018-06-22T21:36:55.223Z,6.63
2018-06-22T21:39:23.866Z,6.70
2018-06-22T21:41:52.599Z,10.53
2018-06-22T21:44:21.666Z,8.63
2018-06-22T21:46:50.605Z,7.63
2018-06-22T21:49:19.514Z,6.03
2018-06-22T21:51:48.449Z,7.27
2018-06-22T21:54:17.331Z,7.97
2018-06-22T21:56:46.316Z,5.30
2018-06-22T21:59:15.183Z,8.53
2018-06-22T22:01:43.879Z,7.60
2018-06-22T22:04:12.476Z,6.70
2018-06-22T22:06:41.156Z,6.43
2018-06-22T22:09:10.159Z,8.83
2018-06-22T22:11:44.651Z,5.53
2018-06-22T22:14:13.498Z,5.23
2018-06-22T22:16:42.453Z,5.00
2018-06-22T22:19:11.080Z,4.80
2018-06-22T22:21:40.053Z,5.60
2018-06-22T22:24:09.026Z,5.57
2018-06-22T22:26:38.037Z,5.13
2018-06-22T22:29:07.800Z,4.97
2018-06-22T22:31:37.425Z,6.57
2018-06-22T22:34:06.393Z,4.40
2018-06-22T22:36:35.363Z,4.70
2018-06-22T22:39:07.202Z,3.97
2018-06-22T22:41:36.468Z,4.13
2018-06-22T22:44:05.646Z,3.80
2018-06-22T22:46:34.213Z,4.77
2018-06-22T22:49:03.106Z,5.63
2018-06-22T22:51:32.026Z,3.37
2018-06-22T22:54:00.760Z,3.60
2018-06-22T22:56:29.383Z,6.23
2018-06-22T22:58:58.278Z,2.77
2018-06-22T23:01:27.348Z,3.97
2018-06-22T23:03:55.936Z,3.60
2018-06-22T23:06:24.516Z,3.63
2018-06-22T23:08:53.108Z,3.13
2018-06-22T23:11:21.721Z,3.37
2018-06-22T23:13:50.355Z,4.00
2018-06-22T23:16:18.976Z,3.23
2018-06-22T23:18:47.551Z,2.90
2018-06-22T23:21:16.113Z,3.40
2018-06-22T23:23:44.848Z,2.70
2018-06-22T23:26:14.123Z,2.80
2018-06-22T23:28:42.788Z,2.97
2018-06-22T23:31:11.401Z,4.07
2018-06-22T23:33:40.015Z,3.10
2018-06-22T23:36:08.633Z,2.83
2018-06-22T23:38:37.317Z,2.57
2018-06-22T23:41:06.096Z,2.83
2018-06-22T23:43:35.088Z,3.60
2018-06-22T23:46:04.131Z,2.60
2018-06-22T23:48:32.724Z,2.50
2018-06-22T23:51:01.694Z,2.57
2018-06-22T23:53:30.613Z,2.83
2018-06-22T23:55:59.564Z,2.40
2018-06-22T23:58:28.451Z,2.27
